sensor_id;sensor_type;location;lat;lon;timestamp;P1;durP1;ratioP1;P2;durP2;ratioP2
5277;SDS011;2662;51.194;6.614;2023-07-31T00:02:24;9.00;;;3.30;;
5277;SDS011;2662;51.194;6.614;2023-07-31T00:04:51;9.60;;;3.80;;
5277;SDS011;2662;51.194;6.614;2023-07-31T00:07:19;9.63;;;3.50;;
5277;SDS011;2662;51.194;6.614;2023-07-31T00:09:46;16.27;;;3.40;;
5277;SDS011;2662;51.194;6.614;2023-07-31T00:12:13;13.53;;;3.63;;
5277;SDS011;2662;51.194;6.614;2023-07-31T00:14:39;8.40;;;2.80;;
5277;SDS011;2662;51.194;6.614;2023-07-31T00:17:06;8.80;;;3.30;;
5277;SDS011;2662;51.194;6.614;2023-07-31T00:19:33;9.00;;;3.70;;
5277;SDS011;2662;51.194;6.614;2023-07-31T00:21:59;7.80;;;3.40;;
5277;SDS011;2662;51.194;6.614;2023-07-31T00:24:27;7.60;;;3.43;;
5277;SDS011;2662;51.194;6.614;2023-07-31T00:26:54;14.80;;;3.40;;
5277;SDS011;2662;51.194;6.614;2023-07-31T00:29:21;12.70;;;3.70;;
5277;SDS011;2662;51.194;6.614;2023-07-31T00:31:48;10.27;;;3.17;;
5277;SDS011;2662;51.194;6.614;2023-07-31T00:34:15;9.53;;;3.67;;
5277;SDS011;2662;51.194;6.614;2023-07-31T00:36:41;10.90;;;3.63;;
5277;SDS011;2662;51.194;6.614;2023-07-31T00:39:08;9.03;;;2.90;;
5277;SDS011;2662;51.194;6.614;2023-07-31T00:41:36;11.60;;;2.90;;
5277;SDS011;2662;51.194;6.614;2023-07-31T00:44:03;9.70;;;3.67;;
5277;SDS011;2662;51.194;6.614;2023-07-31T00:46:29;11.10;;;3.53;;
5277;SDS011;2662;51.194;6.614;2023-07-31T00:48:56;10.17;;;3.40;;
5277;SDS011;2662;51.194;6.614;2023-07-31T00:51:23;11.57;;;3.20;;
5277;SDS011;2662;51.194;6.614;2023-07-31T00:53:50;14.43;;;3.70;;
5277;SDS011;2662;51.194;6.614;2023-07-31T00:56:20;6.13;;;3.60;;
5277;SDS011;2662;51.194;6.614;2023-07-31T00:58:49;11.43;;;3.33;;
5277;SDS011;2662;51.194;6.614;2023-07-31T01:01:16;7.60;;;2.90;;
5277;SDS011;2662;51.194;6.614;2023-07-31T01:03:42;12.23;;;3.30;;
5277;SDS011;2662;51.194;6.614;2023-07-31T01:06:12;17.90;;;3.53;;
5277;SDS011;2662;51.194;6.614;2023-07-31T01:08:44;7.70;;;3.57;;
5277;SDS011;2662;51.194;6.614;2023-07-31T01:11:19;6.57;;;2.90;;
5277;SDS011;2662;51.194;6.614;2023-07-31T01:13:50;9.00;;;3.10;;
5277;SDS011;2662;51.194;6.614;2023-07-31T01:16:18;8.13;;;3.27;;
5277;SDS011;2662;51.194;6.614;2023-07-31T01:18:44;8.30;;;3.03;;
5277;SDS011;2662;51.194;6.614;2023-07-31T01:21:22;7.80;;;2.93;;
5277;SDS011;2662;51.194;6.614;2023-07-31T01:24:08;10.67;;;4.07;;
5277;SDS011;2662;51.194;6.614;2023-07-31T01:26:55;8.83;;;3.20;;
5277;SDS011;2662;51.194;6.614;2023-07-31T01:29:25;13.33;;;3.40;;
5277;SDS011;2662;51.194;6.614;2023-07-31T01:32:01;7.93;;;3.20;;
5277;SDS011;2662;51.194;6.614;2023-07-31T01:34:29;10.27;;;3.10;;
5277;SDS011;2662;51.194;6.614;2023-07-31T01:36:57;16.03;;;3.90;;
5277;SDS011;2662;51.194;6.614;2023-07-31T01:39:23;12.33;;;3.07;;
5277;SDS011;2662;51.194;6.614;2023-07-31T01:41:50;10.40;;;3.10;;
5277;SDS011;2662;51.194;6.614;2023-07-31T01:44:18;10.50;;;3.10;;
5277;SDS011;2662;51.194;6.614;2023-07-31T01:46:45;9.40;;;3.30;;
5277;SDS011;2662;51.194;6.614;2023-07-31T01:49:12;19.73;;;4.00;;
5277;SDS011;2662;51.194;6.614;2023-07-31T01:51:39;12.43;;;3.47;;
5277;SDS011;2662;51.194;6.614;2023-07-31T01:54:05;17.13;;;4.40;;
5277;SDS011;2662;51.194;6.614;2023-07-31T01:56:32;15.80;;;3.43;;
5277;SDS011;2662;51.194;6.614;2023-07-31T01:58:59;13.83;;;3.87;;
5277;SDS011;2662;51.194;6.614;2023-07-31T02:01:27;16.23;;;3.87;;
5277;SDS011;2662;51.194;6.614;2023-07-31T02:03:54;11.00;;;3.20;;
5277;SDS011;2662;51.194;6.614;2023-07-31T02:06:20;10.17;;;4.13;;
5277;SDS011;2662;51.194;6.614;2023-07-31T02:08:47;11.30;;;3.77;;
5277;SDS011;2662;51.194;6.614;2023-07-31T02:11:15;12.80;;;3.20;;
5277;SDS011;2662;51.194;6.614;2023-07-31T02:13:41;10.10;;;3.60;;
5277;SDS011;2662;51.194;6.614;2023-07-31T02:16:08;10.80;;;3.57;;
5277;SDS011;2662;51.194;6.614;2023-07-31T02:18:36;13.73;;;3.53;;
5277;SDS011;2662;51.194;6.614;2023-07-31T02:21:03;15.10;;;3.43;;
5277;SDS011;2662;51.194;6.614;2023-07-31T02:23:29;9.83;;;3.40;;
5277;SDS011;2662;51.194;6.614;2023-07-31T02:25:56;13.40;;;3.73;;
5277;SDS011;2662;51.194;6.614;2023-07-31T02:28:23;7.07;;;3.13;;
5277;SDS011;2662;51.194;6.614;2023-07-31T02:30:50;9.23;;;3.10;;
5277;SDS011;2662;51.194;6.614;2023-07-31T02:33:17;12.77;;;4.07;;
5277;SDS011;2662;51.194;6.614;2023-07-31T02:35:45;13.90;;;3.27;;
5277;SDS011;2662;51.194;6.614;2023-07-31T02:38:12;6.80;;;3.27;;
5277;SDS011;2662;51.194;6.614;2023-07-31T02:40:39;9.43;;;3.53;;
5277;SDS011;2662;51.194;6.614;2023-07-31T02:43:06;8.60;;;3.33;;
5277;SDS011;2662;51.194;6.614;2023-07-31T02:45:32;14.60;;;3.80;;
5277;SDS011;2662;51.194;6.614;2023-07-31T02:47:59;12.33;;;3.60;;
5277;SDS011;2662;51.194;6.614;2023-07-31T02:50:26;6.97;;;3.30;;
5277;SDS011;2662;51.194;6.614;2023-07-31T02:52:55;13.00;;;3.90;;
5277;SDS011;2662;51.194;6.614;2023-07-31T02:55:21;14.63;;;3.87;;
5277;SDS011;2662;51.194;6.614;2023-07-31T02:57:48;11.60;;;3.93;;
5277;SDS011;2662;51.194;6.614;2023-07-31T03:00:17;8.33;;;3.33;;
5277;SDS011;2662;51.194;6.614;2023-07-31T03:02:44;10.07;;;3.73;;
5277;SDS011;2662;51.194;6.614;2023-07-31T03:05:10;7.60;;;4.10;;
5277;SDS011;2662;51.194;6.614;2023-07-31T03:07:37;7.43;;;3.23;;
5277;SDS011;2662;51.194;6.614;2023-07-31T03:10:06;16.03;;;3.50;;
5277;SDS011;2662;51.194;6.614;2023-07-31T03:12:33;9.13;;;3.33;;
5277;SDS011;2662;51.194;6.614;2023-07-31T03:15:00;13.30;;;4.13;;
5277;SDS011;2662;51.194;6.614;2023-07-31T03:17:27;7.40;;;3.23;;
5277;SDS011;2662;51.194;6.614;2023-07-31T03:19:53;12.63;;;3.63;;
5277;SDS011;2662;51.194;6.614;2023-07-31T03:22:20;9.00;;;3.50;;
5277;SDS011;2662;51.194;6.614;2023-07-31T03:24:47;9.30;;;3.40;;
5277;SDS011;2662;51.194;6.614;2023-07-31T03:27:15;13.60;;;3.50;;
5277;SDS011;2662;51.194;6.614;2023-07-31T03:29:41;6.87;;;3.10;;
5277;SDS011;2662;51.194;6.614;2023-07-31T03:32:08;9.13;;;3.23;;
5277;SDS011;2662;51.194;6.614;2023-07-31T03:34:35;21.90;;;3.60;;
5277;SDS011;2662;51.194;6.614;2023-07-31T03:37:02;11.60;;;4.23;;
5277;SDS011;2662;51.194;6.614;2023-07-31T03:39:30;10.50;;;3.80;;
5277;SDS011;2662;51.194;6.614;2023-07-31T03:41:56;21.57;;;4.43;;
5277;SDS011;2662;51.194;6.614;2023-07-31T03:44:24;7.23;;;3.10;;
5277;SDS011;2662;51.194;6.614;2023-07-31T03:46:51;26.23;;;4.17;;
5277;SDS011;2662;51.194;6.614;2023-07-31T03:49:18;7.50;;;3.17;;
5277;SDS011;2662;51.194;6.614;2023-07-31T03:51:45;11.47;;;3.90;;
5277;SDS011;2662;51.194;6.614;2023-07-31T03:54:11;5.67;;;3.60;;
5277;SDS011;2662;51.194;6.614;2023-07-31T03:56:39;8.00;;;3.77;;
5277;SDS011;2662;51.194;6.614;2023-07-31T03:59:05;8.97;;;3.50;;
5277;SDS011;2662;51.194;6.614;2023-07-31T04:01:33;9.70;;;3.23;;
5277;SDS011;2662;51.194;6.614;2023-07-31T04:04:00;8.63;;;3.50;;
5277;SDS011;2662;51.194;6.614;2023-07-31T04:06:27;8.20;;;3.97;;
5277;SDS011;2662;51.194;6.614;2023-07-31T04:08:53;14.80;;;3.83;;
5277;SDS011;2662;51.194;6.614;2023-07-31T04:11:20;10.60;;;3.43;;
5277;SDS011;2662;51.194;6.614;2023-07-31T04:13:47;13.30;;;3.70;;
5277;SDS011;2662;51.194;6.614;2023-07-31T04:16:13;18.67;;;4.83;;
5277;SDS011;2662;51.194;6.614;2023-07-31T04:18:41;18.13;;;4.07;;
5277;SDS011;2662;51.194;6.614;2023-07-31T04:21:08;12.90;;;4.20;;
5277;SDS011;2662;51.194;6.614;2023-07-31T04:23:35;13.93;;;4.53;;
5277;SDS011;2662;51.194;6.614;2023-07-31T04:26:02;9.87;;;3.47;;
5277;SDS011;2662;51.194;6.614;2023-07-31T04:28:29;15.47;;;4.30;;
5277;SDS011;2662;51.194;6.614;2023-07-31T04:30:56;6.87;;;3.53;;
5277;SDS011;2662;51.194;6.614;2023-07-31T04:33:23;10.77;;;3.87;;
5277;SDS011;2662;51.194;6.614;2023-07-31T04:35:51;6.90;;;3.47;;
5277;SDS011;2662;51.194;6.614;2023-07-31T04:38:19;13.70;;;4.50;;
5277;SDS011;2662;51.194;6.614;2023-07-31T04:40:46;9.27;;;3.90;;
5277;SDS011;2662;51.194;6.614;2023-07-31T04:43:13;15.90;;;4.07;;
5277;SDS011;2662;51.194;6.614;2023-07-31T04:45:42;17.40;;;4.73;;
5277;SDS011;2662;51.194;6.614;2023-07-31T04:48:11;8.77;;;4.00;;
5277;SDS011;2662;51.194;6.614;2023-07-31T04:50:37;10.73;;;3.40;;
5277;SDS011;2662;51.194;6.614;2023-07-31T04:53:05;14.40;;;3.90;;
5277;SDS011;2662;51.194;6.614;2023-07-31T04:55:32;13.53;;;4.37;;
5277;SDS011;2662;51.194;6.614;2023-07-31T04:57:59;11.83;;;3.80;;
5277;SDS011;2662;51.194;6.614;2023-07-31T05:00:26;8.30;;;3.73;;
5277;SDS011;2662;51.194;6.614;2023-07-31T05:02:52;12.37;;;4.33;;
5277;SDS011;2662;51.194;6.614;2023-07-31T05:05:19;12.00;;;3.57;;
5277;SDS011;2662;51.194;6.614;2023-07-31T05:07:46;10.03;;;3.47;;
5277;SDS011;2662;51.194;6.614;2023-07-31T05:10:14;7.00;;;4.07;;
5277;SDS011;2662;51.194;6.614;2023-07-31T05:12:40;11.13;;;4.50;;
5277;SDS011;2662;51.194;6.614;2023-07-31T05:15:07;10.53;;;3.67;;
5277;SDS011;2662;51.194;6.614;2023-07-31T05:17:35;8.93;;;3.43;;
5277;SDS011;2662;51.194;6.614;2023-07-31T05:20:02;12.00;;;3.90;;
5277;SDS011;2662;51.194;6.614;2023-07-31T05:22:28;9.50;;;3.90;;
5277;SDS011;2662;51.194;6.614;2023-07-31T05:24:55;6.70;;;3.67;;
5277;SDS011;2662;51.194;6.614;2023-07-31T05:27:23;8.57;;;4.00;;
5277;SDS011;2662;51.194;6.614;2023-07-31T05:29:50;8.53;;;3.53;;
5277;SDS011;2662;51.194;6.614;2023-07-31T05:32:16;7.30;;;3.03;;
5277;SDS011;2662;51.194;6.614;2023-07-31T05:34:43;6.13;;;3.80;;
5277;SDS011;2662;51.194;6.614;2023-07-31T05:37:10;9.77;;;3.60;;
5277;SDS011;2662;51.194;6.614;2023-07-31T05:39:37;8.00;;;3.70;;
5277;SDS011;2662;51.194;6.614;2023-07-31T05:42:04;7.50;;;3.63;;
5277;SDS011;2662;51.194;6.614;2023-07-31T05:44:32;8.40;;;3.70;;
5277;SDS011;2662;51.194;6.614;2023-07-31T05:46:59;7.83;;;3.33;;
5277;SDS011;2662;51.194;6.614;2023-07-31T05:49:26;11.07;;;3.93;;
5277;SDS011;2662;51.194;6.614;2023-07-31T05:51:52;5.37;;;2.97;;
5277;SDS011;2662;51.194;6.614;2023-07-31T05:54:19;3.60;;;3.00;;
5277;SDS011;2662;51.194;6.614;2023-07-31T06:00:07;3.70;;;2.70;;
5277;SDS011;2662;51.194;6.614;2023-07-31T06:02:34;9.27;;;3.20;;
5277;SDS011;2662;51.194;6.614;2023-07-31T06:05:02;10.70;;;3.23;;
5277;SDS011;2662;51.194;6.614;2023-07-31T06:07:29;9.63;;;3.07;;
5277;SDS011;2662;51.194;6.614;2023-07-31T06:09:55;7.60;;;3.23;;
5277;SDS011;2662;51.194;6.614;2023-07-31T06:12:27;6.90;;;2.93;;
5277;SDS011;2662;51.194;6.614;2023-07-31T06:14:53;8.07;;;3.20;;
5277;SDS011;2662;51.194;6.614;2023-07-31T06:17:22;12.03;;;3.33;;
5277;SDS011;2662;51.194;6.614;2023-07-31T06:19:48;6.57;;;3.30;;
5277;SDS011;2662;51.194;6.614;2023-07-31T06:22:15;6.33;;;3.03;;
5277;SDS011;2662;51.194;6.614;2023-07-31T06:24:42;10.90;;;3.70;;
5277;SDS011;2662;51.194;6.614;2023-07-31T06:27:09;8.00;;;3.60;;
5277;SDS011;2662;51.194;6.614;2023-07-31T06:29:36;6.00;;;3.50;;
5277;SDS011;2662;51.194;6.614;2023-07-31T06:32:03;4.27;;;3.10;;
5277;SDS011;2662;51.194;6.614;2023-07-31T06:34:31;9.17;;;3.50;;
5277;SDS011;2662;51.194;6.614;2023-07-31T06:36:58;11.33;;;3.40;;
5277;SDS011;2662;51.194;6.614;2023-07-31T06:39:25;8.17;;;2.77;;
5277;SDS011;2662;51.194;6.614;2023-07-31T06:41:51;5.57;;;3.23;;
5277;SDS011;2662;51.194;6.614;2023-07-31T06:44:18;5.30;;;2.80;;
5277;SDS011;2662;51.194;6.614;2023-07-31T06:46:45;10.60;;;2.97;;
5277;SDS011;2662;51.194;6.614;2023-07-31T06:49:12;9.13;;;2.80;;
5277;SDS011;2662;51.194;6.614;2023-07-31T06:51:41;4.73;;;2.53;;
5277;SDS011;2662;51.194;6.614;2023-07-31T06:54:09;4.67;;;3.10;;
5277;SDS011;2662;51.194;6.614;2023-07-31T06:56:36;7.17;;;3.80;;
5277;SDS011;2662;51.194;6.614;2023-07-31T06:59:03;4.90;;;3.00;;
5277;SDS011;2662;51.194;6.614;2023-07-31T07:01:29;7.33;;;2.90;;
5277;SDS011;2662;51.194;6.614;2023-07-31T07:03:56;11.50;;;3.30;;
5277;SDS011;2662;51.194;6.614;2023-07-31T07:06:23;9.63;;;3.17;;
5277;SDS011;2662;51.194;6.614;2023-07-31T07:08:51;8.60;;;3.30;;
5277;SDS011;2662;51.194;6.614;2023-07-31T07:11:17;4.53;;;3.10;;
5277;SDS011;2662;51.194;6.614;2023-07-31T07:13:44;5.80;;;2.60;;
5277;SDS011;2662;51.194;6.614;2023-07-31T07:16:11;6.37;;;3.37;;
5277;SDS011;2662;51.194;6.614;2023-07-31T07:18:38;10.80;;;2.83;;
5277;SDS011;2662;51.194;6.614;2023-07-31T07:21:05;4.97;;;3.43;;
5277;SDS011;2662;51.194;6.614;2023-07-31T07:23:31;5.00;;;3.13;;
5277;SDS011;2662;51.194;6.614;2023-07-31T07:25:59;10.10;;;3.10;;
5277;SDS011;2662;51.194;6.614;2023-07-31T07:28:26;8.57;;;3.20;;
5277;SDS011;2662;51.194;6.614;2023-07-31T07:30:53;7.47;;;3.10;;
5277;SDS011;2662;51.194;6.614;2023-07-31T07:33:20;3.60;;;2.50;;
5277;SDS011;2662;51.194;6.614;2023-07-31T07:35:47;4.70;;;3.17;;
5277;SDS011;2662;51.194;6.614;2023-07-31T07:38:14;3.67;;;3.00;;
5277;SDS011;2662;51.194;6.614;2023-07-31T07:40:41;5.80;;;3.10;;
5277;SDS011;2662;51.194;6.614;2023-07-31T07:43:09;8.83;;;3.00;;
5277;SDS011;2662;51.194;6.614;2023-07-31T07:45:35;5.73;;;2.80;;
5277;SDS011;2662;51.194;6.614;2023-07-31T07:48:02;4.57;;;3.10;;
5277;SDS011;2662;51.194;6.614;2023-07-31T07:50:29;3.90;;;2.70;;
5277;SDS011;2662;51.194;6.614;2023-07-31T07:52:56;3.83;;;2.80;;
5277;SDS011;2662;51.194;6.614;2023-07-31T07:55:23;4.10;;;2.13;;
5277;SDS011;2662;51.194;6.614;2023-07-31T07:57:49;8.90;;;3.20;;
5277;SDS011;2662;51.194;6.614;2023-07-31T08:00:18;5.80;;;3.20;;
5277;SDS011;2662;51.194;6.614;2023-07-31T08:02:44;4.83;;;2.30;;
5277;SDS011;2662;51.194;6.614;2023-07-31T08:05:11;4.57;;;2.47;;
5277;SDS011;2662;51.194;6.614;2023-07-31T08:07:38;4.27;;;2.67;;
5277;SDS011;2662;51.194;6.614;2023-07-31T08:10:05;8.47;;;2.40;;
5277;SDS011;2662;51.194;6.614;2023-07-31T08:12:32;5.87;;;2.73;;
5277;SDS011;2662;51.194;6.614;2023-07-31T08:14:59;9.90;;;2.73;;
5277;SDS011;2662;51.194;6.614;2023-07-31T08:17:27;8.43;;;2.60;;
5277;SDS011;2662;51.194;6.614;2023-07-31T08:19:54;5.80;;;2.80;;
5277;SDS011;2662;51.194;6.614;2023-07-31T08:22:23;7.07;;;2.90;;
5277;SDS011;2662;51.194;6.614;2023-07-31T08:24:50;3.43;;;2.37;;
5277;SDS011;2662;51.194;6.614;2023-07-31T08:27:16;4.87;;;2.57;;
5277;SDS011;2662;51.194;6.614;2023-07-31T08:29:43;5.77;;;2.40;;
5277;SDS011;2662;51.194;6.614;2023-07-31T08:32:10;4.03;;;2.40;;
5277;SDS011;2662;51.194;6.614;2023-07-31T08:34:38;7.23;;;2.90;;
5277;SDS011;2662;51.194;6.614;2023-07-31T08:37:05;12.43;;;2.57;;
5277;SDS011;2662;51.194;6.614;2023-07-31T08:39:31;7.00;;;2.60;;
5277;SDS011;2662;51.194;6.614;2023-07-31T08:41:58;4.40;;;2.70;;
5277;SDS011;2662;51.194;6.614;2023-07-31T08:44:25;4.60;;;2.43;;
5277;SDS011;2662;51.194;6.614;2023-07-31T08:46:52;5.27;;;3.20;;
5277;SDS011;2662;51.194;6.614;2023-07-31T08:49:20;7.30;;;2.80;;
5277;SDS011;2662;51.194;6.614;2023-07-31T08:51:50;11.97;;;2.87;;
5277;SDS011;2662;51.194;6.614;2023-07-31T08:54:18;5.17;;;2.60;;
5277;SDS011;2662;51.194;6.614;2023-07-31T08:56:45;5.00;;;2.70;;
5277;SDS011;2662;51.194;6.614;2023-07-31T08:59:12;5.73;;;2.50;;
5277;SDS011;2662;51.194;6.614;2023-07-31T09:01:43;14.37;;;2.90;;
5277;SDS011;2662;51.194;6.614;2023-07-31T09:04:14;4.33;;;2.70;;
5277;SDS011;2662;51.194;6.614;2023-07-31T09:06:43;6.07;;;2.93;;
5277;SDS011;2662;51.194;6.614;2023-07-31T09:09:12;5.37;;;3.20;;
5277;SDS011;2662;51.194;6.614;2023-07-31T09:11:40;6.10;;;2.40;;
5277;SDS011;2662;51.194;6.614;2023-07-31T09:14:08;2.53;;;2.33;;
5277;SDS011;2662;51.194;6.614;2023-07-31T09:16:37;7.13;;;3.07;;
5277;SDS011;2662;51.194;6.614;2023-07-31T09:19:24;6.47;;;2.63;;
5277;SDS011;2662;51.194;6.614;2023-07-31T09:21:52;4.10;;;2.50;;
5277;SDS011;2662;51.194;6.614;2023-07-31T09:24:26;5.77;;;2.63;;
5277;SDS011;2662;51.194;6.614;2023-07-31T09:26:53;5.30;;;2.67;;
5277;SDS011;2662;51.194;6.614;2023-07-31T09:29:21;8.03;;;2.83;;
5277;SDS011;2662;51.194;6.614;2023-07-31T09:31:48;11.17;;;3.00;;
5277;SDS011;2662;51.194;6.614;2023-07-31T09:34:15;6.77;;;3.23;;
5277;SDS011;2662;51.194;6.614;2023-07-31T09:36:42;5.70;;;2.70;;
5277;SDS011;2662;51.194;6.614;2023-07-31T09:39:10;6.30;;;2.37;;
5277;SDS011;2662;51.194;6.614;2023-07-31T09:41:40;4.37;;;2.57;;
5277;SDS011;2662;51.194;6.614;2023-07-31T09:44:08;2.83;;;2.63;;
5277;SDS011;2662;51.194;6.614;2023-07-31T09:46:35;4.90;;;2.70;;
5277;SDS011;2662;51.194;6.614;2023-07-31T09:49:03;4.93;;;3.10;;
5277;SDS011;2662;51.194;6.614;2023-07-31T09:51:31;5.60;;;2.77;;
5277;SDS011;2662;51.194;6.614;2023-07-31T09:54:03;7.37;;;2.77;;
5277;SDS011;2662;51.194;6.614;2023-07-31T09:56:31;5.63;;;2.90;;
5277;SDS011;2662;51.194;6.614;2023-07-31T09:59:00;3.73;;;2.80;;
5277;SDS011;2662;51.194;6.614;2023-07-31T10:01:29;7.90;;;2.80;;
5277;SDS011;2662;51.194;6.614;2023-07-31T10:03:57;3.10;;;2.83;;
5277;SDS011;2662;51.194;6.614;2023-07-31T10:06:24;3.73;;;2.47;;
5277;SDS011;2662;51.194;6.614;2023-07-31T10:08:52;4.23;;;2.90;;
5277;SDS011;2662;51.194;6.614;2023-07-31T10:11:20;6.93;;;2.80;;
5277;SDS011;2662;51.194;6.614;2023-07-31T10:13:49;10.33;;;3.00;;
5277;SDS011;2662;51.194;6.614;2023-07-31T10:16:18;9.63;;;2.60;;
5277;SDS011;2662;51.194;6.614;2023-07-31T10:18:45;5.77;;;3.00;;
5277;SDS011;2662;51.194;6.614;2023-07-31T10:21:12;4.20;;;2.70;;
5277;SDS011;2662;51.194;6.614;2023-07-31T10:23:40;4.67;;;2.67;;
5277;SDS011;2662;51.194;6.614;2023-07-31T10:26:10;8.70;;;3.00;;
5277;SDS011;2662;51.194;6.614;2023-07-31T10:28:39;5.23;;;2.73;;
5277;SDS011;2662;51.194;6.614;2023-07-31T10:31:06;6.00;;;2.67;;
5277;SDS011;2662;51.194;6.614;2023-07-31T10:33:35;6.23;;;2.77;;
5277;SDS011;2662;51.194;6.614;2023-07-31T10:36:12;4.87;;;2.33;;
5277;SDS011;2662;51.194;6.614;2023-07-31T10:38:40;5.63;;;2.50;;
5277;SDS011;2662;51.194;6.614;2023-07-31T10:41:07;7.70;;;3.30;;
5277;SDS011;2662;51.194;6.614;2023-07-31T10:43:35;4.37;;;2.37;;
5277;SDS011;2662;51.194;6.614;2023-07-31T10:46:05;6.87;;;2.63;;
5277;SDS011;2662;51.194;6.614;2023-07-31T10:48:33;3.87;;;2.53;;
5277;SDS011;2662;51.194;6.614;2023-07-31T10:51:02;2.10;;;1.83;;
5277;SDS011;2662;51.194;6.614;2023-07-31T10:53:34;4.60;;;2.13;;
5277;SDS011;2662;51.194;6.614;2023-07-31T10:56:00;6.63;;;2.60;;
5277;SDS011;2662;51.194;6.614;2023-07-31T10:58:29;7.93;;;2.43;;
5277;SDS011;2662;51.194;6.614;2023-07-31T11:00:58;8.63;;;2.40;;
5277;SDS011;2662;51.194;6.614;2023-07-31T11:03:27;6.27;;;1.70;;
5277;SDS011;2662;51.194;6.614;2023-07-31T11:06:08;3.57;;;1.97;;
5277;SDS011;2662;51.194;6.614;2023-07-31T11:08:35;7.93;;;2.10;;
5277;SDS011;2662;51.194;6.614;2023-07-31T11:11:08;3.30;;;1.80;;
5277;SDS011;2662;51.194;6.614;2023-07-31T11:13:40;2.03;;;1.87;;
5277;SDS011;2662;51.194;6.614;2023-07-31T11:16:07;2.30;;;1.80;;
5277;SDS011;2662;51.194;6.614;2023-07-31T11:18:34;2.10;;;1.70;;
5277;SDS011;2662;51.194;6.614;2023-07-31T11:21:01;2.40;;;1.57;;
5277;SDS011;2662;51.194;6.614;2023-07-31T11:23:29;1.80;;;1.70;;
5277;SDS011;2662;51.194;6.614;2023-07-31T11:25:58;3.73;;;1.80;;
5277;SDS011;2662;51.194;6.614;2023-07-31T11:28:26;6.70;;;2.07;;
5277;SDS011;2662;51.194;6.614;2023-07-31T11:30:57;2.70;;;1.73;;
5277;SDS011;2662;51.194;6.614;2023-07-31T11:33:24;1.33;;;1.23;;
5277;SDS011;2662;51.194;6.614;2023-07-31T11:35:51;3.80;;;1.50;;
5277;SDS011;2662;51.194;6.614;2023-07-31T11:38:21;1.70;;;1.50;;
5277;SDS011;2662;51.194;6.614;2023-07-31T11:40:51;2.63;;;1.70;;
5277;SDS011;2662;51.194;6.614;2023-07-31T11:43:18;6.00;;;1.60;;
5277;SDS011;2662;51.194;6.614;2023-07-31T11:45:46;2.07;;;1.87;;
5277;SDS011;2662;51.194;6.614;2023-07-31T11:48:21;1.90;;;1.70;;
5277;SDS011;2662;51.194;6.614;2023-07-31T11:50:50;1.87;;;1.70;;
5277;SDS011;2662;51.194;6.614;2023-07-31T11:53:18;2.13;;;1.60;;
5277;SDS011;2662;51.194;6.614;2023-07-31T11:55:47;1.20;;;1.10;;
5277;SDS011;2662;51.194;6.614;2023-07-31T11:58:16;2.47;;;1.33;;
5277;SDS011;2662;51.194;6.614;2023-07-31T12:00:44;4.67;;;1.90;;
5277;SDS011;2662;51.194;6.614;2023-07-31T12:03:12;6.83;;;1.40;;
5277;SDS011;2662;51.194;6.614;2023-07-31T12:05:39;2.07;;;1.70;;
5277;SDS011;2662;51.194;6.614;2023-07-31T12:08:09;3.27;;;1.40;;
5277;SDS011;2662;51.194;6.614;2023-07-31T12:10:36;1.50;;;1.40;;
5277;SDS011;2662;51.194;6.614;2023-07-31T12:13:06;2.57;;;1.70;;
5277;SDS011;2662;51.194;6.614;2023-07-31T12:15:38;4.40;;;1.97;;
5277;SDS011;2662;51.194;6.614;2023-07-31T12:18:06;3.63;;;2.23;;
5277;SDS011;2662;51.194;6.614;2023-07-31T12:20:35;2.43;;;1.53;;
5277;SDS011;2662;51.194;6.614;2023-07-31T12:23:06;3.43;;;2.10;;
5277;SDS011;2662;51.194;6.614;2023-07-31T12:25:39;1.83;;;1.73;;
5277;SDS011;2662;51.194;6.614;2023-07-31T12:28:06;4.10;;;2.60;;
5277;SDS011;2662;51.194;6.614;2023-07-31T12:30:38;2.50;;;2.13;;
5277;SDS011;2662;51.194;6.614;2023-07-31T12:33:06;5.57;;;2.20;;
5277;SDS011;2662;51.194;6.614;2023-07-31T12:35:40;4.40;;;2.27;;
5277;SDS011;2662;51.194;6.614;2023-07-31T12:38:09;3.47;;;2.67;;
5277;SDS011;2662;51.194;6.614;2023-07-31T12:40:37;1.90;;;1.80;;
5277;SDS011;2662;51.194;6.614;2023-07-31T12:43:05;1.87;;;1.77;;
5277;SDS011;2662;51.194;6.614;2023-07-31T12:45:32;3.13;;;1.90;;
5277;SDS011;2662;51.194;6.614;2023-07-31T12:48:00;4.87;;;2.30;;
5277;SDS011;2662;51.194;6.614;2023-07-31T12:50:28;2.93;;;2.10;;
5277;SDS011;2662;51.194;6.614;2023-07-31T12:52:54;4.03;;;2.47;;
5277;SDS011;2662;51.194;6.614;2023-07-31T12:55:22;2.90;;;2.13;;
5277;SDS011;2662;51.194;6.614;2023-07-31T12:57:49;2.77;;;2.57;;
5277;SDS011;2662;51.194;6.614;2023-07-31T13:00:17;2.60;;;2.13;;
5277;SDS011;2662;51.194;6.614;2023-07-31T13:02:43;2.83;;;2.10;;
5277;SDS011;2662;51.194;6.614;2023-07-31T13:05:11;3.30;;;2.60;;
5277;SDS011;2662;51.194;6.614;2023-07-31T13:07:39;9.87;;;3.63;;
5277;SDS011;2662;51.194;6.614;2023-07-31T13:10:06;3.00;;;2.40;;
5277;SDS011;2662;51.194;6.614;2023-07-31T13:12:33;5.23;;;2.40;;
5277;SDS011;2662;51.194;6.614;2023-07-31T13:15:00;6.23;;;2.97;;
5277;SDS011;2662;51.194;6.614;2023-07-31T13:17:27;2.50;;;2.30;;
5277;SDS011;2662;51.194;6.614;2023-07-31T13:19:53;2.50;;;2.30;;
5277;SDS011;2662;51.194;6.614;2023-07-31T13:22:21;3.97;;;2.43;;
5277;SDS011;2662;51.194;6.614;2023-07-31T13:24:48;47.70;;;5.13;;
5277;SDS011;2662;51.194;6.614;2023-07-31T13:27:15;8.87;;;2.70;;
5277;SDS011;2662;51.194;6.614;2023-07-31T13:29:43;4.63;;;2.13;;
5277;SDS011;2662;51.194;6.614;2023-07-31T13:32:10;4.67;;;2.33;;
5277;SDS011;2662;51.194;6.614;2023-07-31T13:34:37;4.53;;;2.30;;
5277;SDS011;2662;51.194;6.614;2023-07-31T13:37:04;3.10;;;2.30;;
5277;SDS011;2662;51.194;6.614;2023-07-31T13:39:33;4.67;;;2.93;;
5277;SDS011;2662;51.194;6.614;2023-07-31T13:42:00;8.23;;;2.77;;
5277;SDS011;2662;51.194;6.614;2023-07-31T13:44:27;5.43;;;2.47;;
5277;SDS011;2662;51.194;6.614;2023-07-31T13:46:54;6.80;;;2.50;;
5277;SDS011;2662;51.194;6.614;2023-07-31T13:49:22;6.33;;;2.63;;
5277;SDS011;2662;51.194;6.614;2023-07-31T13:51:49;4.20;;;2.47;;
5277;SDS011;2662;51.194;6.614;2023-07-31T13:54:16;9.80;;;2.30;;
5277;SDS011;2662;51.194;6.614;2023-07-31T13:56:44;5.13;;;2.93;;
5277;SDS011;2662;51.194;6.614;2023-07-31T13:59:11;5.20;;;2.60;;
5277;SDS011;2662;51.194;6.614;2023-07-31T14:01:40;3.97;;;2.30;;
5277;SDS011;2662;51.194;6.614;2023-07-31T14:04:06;4.23;;;2.23;;
5277;SDS011;2662;51.194;6.614;2023-07-31T14:06:33;4.40;;;2.10;;
5277;SDS011;2662;51.194;6.614;2023-07-31T14:09:00;5.20;;;2.40;;
5277;SDS011;2662;51.194;6.614;2023-07-31T14:11:27;2.67;;;2.47;;
5277;SDS011;2662;51.194;6.614;2023-07-31T14:13:55;5.60;;;2.70;;
5277;SDS011;2662;51.194;6.614;2023-07-31T14:16:22;4.10;;;2.20;;
5277;SDS011;2662;51.194;6.614;2023-07-31T14:18:49;4.10;;;2.10;;
5277;SDS011;2662;51.194;6.614;2023-07-31T14:21:16;4.70;;;2.50;;
5277;SDS011;2662;51.194;6.614;2023-07-31T14:23:44;4.20;;;2.33;;
5277;SDS011;2662;51.194;6.614;2023-07-31T14:26:11;3.17;;;2.40;;
5277;SDS011;2662;51.194;6.614;2023-07-31T14:31:52;5.13;;;2.53;;
5277;SDS011;2662;51.194;6.614;2023-07-31T14:34:18;4.13;;;2.43;;
5277;SDS011;2662;51.194;6.614;2023-07-31T14:36:45;3.00;;;2.33;;
5277;SDS011;2662;51.194;6.614;2023-07-31T14:39:12;4.43;;;2.60;;
5277;SDS011;2662;51.194;6.614;2023-07-31T14:41:38;8.33;;;2.80;;
5277;SDS011;2662;51.194;6.614;2023-07-31T14:44:05;6.63;;;3.30;;
5277;SDS011;2662;51.194;6.614;2023-07-31T14:46:32;3.47;;;2.50;;
5277;SDS011;2662;51.194;6.614;2023-07-31T14:49:00;7.17;;;2.70;;
5277;SDS011;2662;51.194;6.614;2023-07-31T14:51:27;8.17;;;3.20;;
5277;SDS011;2662;51.194;6.614;2023-07-31T14:53:53;5.00;;;3.30;;
5277;SDS011;2662;51.194;6.614;2023-07-31T14:56:20;4.80;;;3.23;;
5277;SDS011;2662;51.194;6.614;2023-07-31T14:58:47;6.13;;;3.57;;
5277;SDS011;2662;51.194;6.614;2023-07-31T15:01:13;6.73;;;3.23;;
5277;SDS011;2662;51.194;6.614;2023-07-31T15:03:40;5.37;;;3.37;;
5277;SDS011;2662;51.194;6.614;2023-07-31T15:06:08;5.87;;;3.17;;
5277;SDS011;2662;51.194;6.614;2023-07-31T15:08:37;5.53;;;2.90;;
5277;SDS011;2662;51.194;6.614;2023-07-31T15:11:03;8.30;;;3.30;;
5277;SDS011;2662;51.194;6.614;2023-07-31T15:13:31;5.47;;;3.57;;
5277;SDS011;2662;51.194;6.614;2023-07-31T15:15:58;7.50;;;3.77;;
5277;SDS011;2662;51.194;6.614;2023-07-31T15:18:25;6.87;;;3.20;;
5277;SDS011;2662;51.194;6.614;2023-07-31T15:20:51;4.80;;;2.83;;
5277;SDS011;2662;51.194;6.614;2023-07-31T15:23:20;4.97;;;3.40;;